createdAt,value
2023-02-28T00:01:28.671Z,-1.36
2023-02-28T00:04:01.254Z,-1.39
2023-02-28T00:06:32.932Z,-1.39
2023-02-28T00:09:08.019Z,-1.39
2023-02-28T00:11:40.359Z,-1.40
2023-02-28T00:14:13.277Z,-1.41
2023-02-28T00:16:45.477Z,-1.44
2023-02-28T00:19:18.143Z,-1.47
2023-02-28T00:21:50.682Z,-1.51
2023-02-28T00:24:22.584Z,-1.54
2023-02-28T00:26:54.962Z,-1.58
2023-02-28T00:29:29.114Z,-1.62
2023-02-28T00:32:03.735Z,-1.66
2023-02-28T00:34:40.544Z,-1.70
2023-02-28T00:37:14.571Z,-1.76
2023-02-28T00:39:58.069Z,-1.81
2023-02-28T00:42:30.795Z,-1.86
2023-02-28T00:45:05.827Z,-1.89
2023-02-28T00:47:39.151Z,-1.90
2023-02-28T00:50:15.019Z,-1.92
2023-02-28T00:52:48.031Z,-1.94
2023-02-28T00:55:20.626Z,-1.95
2023-02-28T00:57:53.418Z,-1.97
2023-02-28T01:00:26.935Z,-1.99
2023-02-28T01:03:03.826Z,-2.02
2023-02-28T01:05:35.793Z,-2.06
2023-02-28T01:08:08.861Z,-2.12
2023-02-28T01:10:50.049Z,-2.19
2023-02-28T01:13:25.388Z,-2.19
2023-02-28T01:15:59.892Z,-2.20
2023-02-28T01:18:33.096Z,-2.21
2023-02-28T01:21:08.573Z,-2.24
2023-02-28T01:23:44.298Z,-2.26
2023-02-28T01:26:19.057Z,-2.28
2023-02-28T01:28:53.837Z,-2.32
2023-02-28T01:31:26.229Z,-2.32
2023-02-28T01:34:00.076Z,-2.36
2023-02-28T01:36:33.910Z,-2.41
2023-02-28T01:39:07.129Z,-2.43
2023-02-28T01:41:40.775Z,-2.47
2023-02-28T01:44:44.327Z,-2.50
2023-02-28T01:47:17.379Z,-2.57
2023-02-28T01:49:50.408Z,-2.60
2023-02-28T01:52:25.381Z,-2.63
2023-02-28T01:55:02.910Z,-2.68
2023-02-28T01:57:41.860Z,-2.68
2023-02-28T02:00:20.115Z,-2.68
2023-02-28T02:02:56.399Z,-2.68
2023-02-28T02:05:38.466Z,-2.73
2023-02-28T02:08:14.251Z,-2.77
2023-02-28T02:10:52.046Z,-2.81
2023-02-28T02:13:42.563Z,-2.82
2023-02-28T02:16:27.274Z,-2.86
2023-02-28T02:19:17.152Z,-2.89
2023-02-28T02:22:24.230Z,-2.90
2023-02-28T02:25:20.810Z,-2.96
2023-02-28T02:28:18.949Z,-3.01
2023-02-28T02:31:33.641Z,-3.08
2023-02-28T02:34:29.291Z,-3.11
2023-02-28T02:37:34.909Z,-3.12
2023-02-28T02:40:17.751Z,-3.16
2023-02-28T02:42:58.517Z,-3.19
2023-02-28T02:45:36.967Z,-3.19
2023-02-28T02:48:14.316Z,-3.21
2023-02-28T02:50:52.367Z,-3.20
2023-02-28T02:53:31.300Z,-3.21
2023-02-28T02:56:06.295Z,-3.22
2023-02-28T02:58:44.283Z,-3.24
2023-02-28T03:01:28.430Z,-3.25
2023-02-28T03:04:03.634Z,-3.25
2023-02-28T03:06:35.914Z,-3.24
2023-02-28T03:09:07.789Z,-3.28
2023-02-28T03:11:42.682Z,-3.31
2023-02-28T03:14:33.319Z,-3.30
2023-02-28T03:17:27.679Z,-3.32
2023-02-28T03:20:09.043Z,-3.36
2023-02-28T03:22:57.528Z,-3.39
2023-02-28T03:25:41.300Z,-3.42
2023-02-28T03:28:20.062Z,-3.40
2023-02-28T03:30:59.980Z,-3.39
2023-02-28T03:33:37.677Z,-3.38
2023-02-28T03:36:16.001Z,-3.38
2023-02-28T03:38:54.388Z,-3.39
2023-02-28T03:41:30.354Z,-3.39
2023-02-28T03:44:08.475Z,-3.40
2023-02-28T03:46:43.448Z,-3.41
2023-02-28T03:49:21.418Z,-3.40
2023-02-28T03:51:56.203Z,-3.45
2023-02-28T03:54:33.376Z,-3.50
2023-02-28T03:57:13.364Z,-3.57
2023-02-28T03:59:50.085Z,-3.59
2023-02-28T04:02:22.909Z,-3.57
2023-02-28T04:04:57.126Z,-3.55
2023-02-28T04:07:30.909Z,-3.51
2023-02-28T04:10:04.175Z,-3.50
2023-02-28T04:12:36.253Z,-3.53
2023-02-28T04:15:13.234Z,-3.54
2023-02-28T04:17:44.526Z,-3.56
2023-02-28T04:20:17.376Z,-3.55
2023-02-28T04:22:50.423Z,-3.55
2023-02-28T04:25:23.558Z,-3.54
2023-02-28T04:27:56.607Z,-3.56
2023-02-28T04:30:27.901Z,-3.57
2023-02-28T04:33:00.511Z,-3.59
2023-02-28T04:35:33.199Z,-3.60
2023-02-28T04:38:10.447Z,-3.64
2023-02-28T04:40:43.437Z,-3.68
2023-02-28T04:43:16.287Z,-3.68
2023-02-28T04:45:48.929Z,-3.64
2023-02-28T04:48:22.220Z,-3.63
2023-02-28T04:50:55.269Z,-3.64
2023-02-28T04:53:27.526Z,-3.65
2023-02-28T04:56:00.880Z,-3.63
2023-02-28T04:58:32.974Z,-3.66
2023-02-28T05:01:21.453Z,-3.67
2023-02-28T05:03:57.421Z,-3.66
2023-02-28T05:06:31.708Z,-3.70
2023-02-28T05:09:03.944Z,-3.72
2023-02-28T05:11:36.977Z,-3.75
2023-02-28T05:14:16.244Z,-3.78
2023-02-28T05:16:48.229Z,-3.80
2023-02-28T05:19:25.220Z,-3.78
2023-02-28T05:21:59.314Z,-3.80
2023-02-28T05:24:37.307Z,-3.83
2023-02-28T05:27:10.567Z,-3.84
2023-02-28T05:29:43.846Z,-3.82
2023-02-28T05:32:16.669Z,-3.83
2023-02-28T05:34:49.512Z,-3.81
2023-02-28T05:37:23.287Z,-3.79
2023-02-28T05:39:55.542Z,-3.79
2023-02-28T05:42:29.336Z,-3.81
2023-02-28T05:45:02.057Z,-3.82
2023-02-28T05:47:35.938Z,-3.83
2023-02-28T05:50:12.795Z,-3.83
2023-02-28T05:52:45.595Z,-3.83
2023-02-28T05:55:17.870Z,-3.81
2023-02-28T05:57:49.183Z,-3.80
2023-02-28T06:00:23.256Z,-3.79
2023-02-28T06:02:59.303Z,-3.79
2023-02-28T06:05:32.091Z,-3.79
2023-02-28T06:08:04.873Z,-3.77
2023-02-28T06:10:38.561Z,-3.74
2023-02-28T06:13:10.305Z,-3.73
2023-02-28T06:15:43.760Z,-3.72
2023-02-28T06:18:16.676Z,-3.72
2023-02-28T06:20:55.698Z,-3.78
2023-02-28T06:23:32.444Z,-3.80
2023-02-28T06:26:03.723Z,-3.77
2023-02-28T06:28:36.114Z,-3.73
2023-02-28T06:31:16.586Z,-3.72
2023-02-28T06:33:50.941Z,-3.76
2023-02-28T06:36:24.206Z,-3.80
2023-02-28T06:38:57.034Z,-3.80
2023-02-28T06:41:29.176Z,-3.78
2023-02-28T06:44:04.148Z,-3.76
2023-02-28T06:46:38.866Z,-3.73
2023-02-28T06:49:10.923Z,-3.69
2023-02-28T06:51:45.521Z,-3.68
2023-02-28T06:54:18.933Z,-3.64
2023-02-28T06:56:50.877Z,-3.55
2023-02-28T06:59:24.010Z,-3.49
2023-02-28T07:01:57.176Z,-3.43
2023-02-28T07:04:29.754Z,-3.37
2023-02-28T07:07:01.433Z,-3.32
2023-02-28T07:09:34.446Z,-3.25
2023-02-28T07:12:05.994Z,-3.18
2023-02-28T07:14:38.188Z,-3.13
2023-02-28T07:17:12.753Z,-3.07
2023-02-28T07:19:44.748Z,-3.02
2023-02-28T07:22:20.001Z,-2.96
2023-02-28T07:24:50.746Z,-2.91
2023-02-28T07:27:26.876Z,-2.83
2023-02-28T07:30:02.315Z,-2.76
2023-02-28T07:32:34.701Z,-2.68
2023-02-28T07:35:08.293Z,-2.64
2023-02-28T07:37:42.027Z,-2.60
2023-02-28T07:40:18.640Z,-2.55
2023-02-28T07:42:51.056Z,-2.49
2023-02-28T07:45:24.600Z,-2.46
2023-02-28T07:47:57.451Z,-2.41
2023-02-28T07:50:31.204Z,-2.33
2023-02-28T07:53:04.749Z,-2.26
2023-02-28T07:55:36.616Z,-2.18
2023-02-28T07:58:09.963Z,-2.09
2023-02-28T08:00:41.488Z,-2.00
2023-02-28T08:03:15.083Z,-1.93
2023-02-28T08:05:49.168Z,-1.86
2023-02-28T08:08:21.361Z,-1.81
2023-02-28T08:10:52.255Z,-1.74
2023-02-28T08:13:27.247Z,-1.69
2023-02-28T08:15:58.375Z,-1.61
2023-02-28T08:18:30.989Z,-1.53
2023-02-28T08:21:06.868Z,-1.48
2023-02-28T08:23:39.363Z,-1.41
2023-02-28T08:26:12.262Z,-1.34
2023-02-28T08:28:43.883Z,-1.25
2023-02-28T08:31:17.725Z,-1.15
2023-02-28T08:33:52.797Z,-1.07
2023-02-28T08:36:42.555Z,-1.00
2023-02-28T08:39:14.169Z,-0.90
2023-02-28T08:41:47.965Z,-0.81
2023-02-28T08:44:21.952Z,-0.72
2023-02-28T08:46:55.294Z,-0.64
2023-02-28T08:49:27.206Z,-0.56
2023-02-28T08:51:58.691Z,-0.50
2023-02-28T08:54:32.779Z,-0.44
2023-02-28T08:57:04.962Z,-0.35
2023-02-28T08:59:37.136Z,-0.27
2023-02-28T09:02:13.918Z,-0.21
2023-02-28T09:04:48.206Z,-0.13
2023-02-28T09:07:21.314Z,-0.05
2023-02-28T09:09:55.118Z,0.04
2023-02-28T09:12:28.646Z,0.09
2023-02-28T09:15:01.082Z,0.15
2023-02-28T09:17:33.015Z,0.23
2023-02-28T09:20:07.405Z,0.30
2023-02-28T09:22:39.691Z,0.34
2023-02-28T09:25:12.376Z,0.38
2023-02-28T09:27:46.536Z,0.43
2023-02-28T09:30:31.050Z,0.51
2023-02-28T09:33:03.233Z,0.57
2023-02-28T09:35:38.091Z,0.62
2023-02-28T09:38:10.753Z,0.67
2023-02-28T09:40:49.129Z,0.73
2023-02-28T09:43:23.590Z,0.77
2023-02-28T09:46:01.888Z,0.81
2023-02-28T09:48:41.366Z,0.84
2023-02-28T09:51:30.474Z,0.88
2023-02-28T09:54:02.572Z,0.91
2023-02-28T09:56:39.494Z,0.96
2023-02-28T09:59:20.652Z,1.00
2023-02-28T10:01:59.798Z,1.06
2023-02-28T10:04:46.631Z,1.11
2023-02-28T10:07:40.324Z,1.14
2023-02-28T10:10:30.829Z,1.16
2023-02-28T10:13:05.920Z,1.18
2023-02-28T10:15:39.772Z,1.24
2023-02-28T10:18:16.825Z,1.28
2023-02-28T10:20:51.003Z,1.33
2023-02-28T10:23:27.420Z,1.36
2023-02-28T10:26:03.417Z,1.42
2023-02-28T10:28:35.374Z,1.47
2023-02-28T10:31:08.462Z,1.52
2023-02-28T10:33:41.288Z,1.54
2023-02-28T10:36:17.733Z,1.58
2023-02-28T10:38:51.418Z,1.60
2023-02-28T10:41:35.290Z,1.65
2023-02-28T10:44:28.492Z,1.67
2023-02-28T10:47:01.701Z,1.69
2023-02-28T10:49:32.449Z,1.72
2023-02-28T10:52:04.308Z,1.78
2023-02-28T10:54:38.441Z,1.84
2023-02-28T10:57:19.437Z,1.86
2023-02-28T11:00:07.191Z,1.88
2023-02-28T11:02:41.719Z,1.91
2023-02-28T11:05:32.852Z,1.94
2023-02-28T11:08:13.429Z,1.98
2023-02-28T11:10:55.495Z,2.01
2023-02-28T11:13:32.255Z,2.03
2023-02-28T11:16:06.077Z,2.09
2023-02-28T11:18:43.528Z,2.15
2023-02-28T11:21:20.655Z,2.19
2023-02-28T11:23:59.419Z,2.19
2023-02-28T11:26:44.495Z,2.21
2023-02-28T11:29:25.135Z,2.25
2023-02-28T11:32:19.353Z,2.32
2023-02-28T11:35:04.509Z,2.35
2023-02-28T11:37:37.142Z,2.35
2023-02-28T11:40:18.040Z,2.39
2023-02-28T11:43:03.965Z,2.44
2023-02-28T11:45:52.709Z,2.48
2023-02-28T11:48:30.831Z,2.54
2023-02-28T11:51:12.897Z,2.60
2023-02-28T11:54:05.157Z,2.68
2023-02-28T11:56:41.123Z,2.73
2023-02-28T11:59:44.541Z,2.80
2023-02-28T12:02:35.317Z,2.82
2023-02-28T12:05:27.125Z,2.85
2023-02-28T12:08:13.452Z,2.89
2023-02-28T12:11:03.147Z,2.94
2023-02-28T12:13:48.894Z,2.97
2023-02-28T12:16:48.252Z,3.00
2023-02-28T12:19:26.343Z,3.06
2023-02-28T12:22:19.642Z,3.11
2023-02-28T12:25:14.663Z,3.16
2023-02-28T12:27:51.564Z,3.17
2023-02-28T12:30:30.507Z,3.18
2023-02-28T12:33:10.389Z,3.22
2023-02-28T12:35:49.110Z,3.25
2023-02-28T12:38:23.570Z,3.26
2023-02-28T12:41:03.110Z,3.30
2023-02-28T12:43:39.758Z,3.33
2023-02-28T12:46:14.798Z,3.35
2023-02-28T12:48:49.783Z,3.38
2023-02-28T12:51:23.519Z,3.39
2023-02-28T12:54:13.054Z,3.39
2023-02-28T12:56:52.591Z,3.40
2023-02-28T12:59:32.512Z,3.42
2023-02-28T13:02:37.582Z,3.44
2023-02-28T13:05:52.543Z,3.43
2023-02-28T13:09:09.722Z,3.45
2023-02-28T13:11:47.744Z,3.47
2023-02-28T13:14:39.180Z,3.49
2023-02-28T13:17:37.700Z,3.51
2023-02-28T13:20:20.158Z,3.54
2023-02-28T13:22:53.644Z,3.57
2023-02-28T13:25:55.827Z,3.59
2023-02-28T13:29:09.321Z,3.60
2023-02-28T13:32:11.965Z,3.59
2023-02-28T13:35:06.734Z,3.61
2023-02-28T13:37:43.907Z,3.61
2023-02-28T13:40:37.709Z,3.64
2023-02-28T13:43:13.585Z,3.67
2023-02-28T13:46:13.034Z,3.71
2023-02-28T13:48:44.545Z,3.71
2023-02-28T13:51:46.958Z,3.73
2023-02-28T13:54:31.951Z,3.73
2023-02-28T13:57:26.761Z,3.73
2023-02-28T14:00:17.707Z,3.73
2023-02-28T14:03:22.046Z,3.74
2023-02-28T14:06:13.057Z,3.73
2023-02-28T14:08:55.900Z,3.75
2023-02-28T14:11:33.154Z,3.77
2023-02-28T14:14:07.511Z,3.76
2023-02-28T14:16:48.111Z,3.76
2023-02-28T14:19:26.050Z,3.75
2023-02-28T14:22:13.775Z,3.75
2023-02-28T14:25:22.959Z,3.76
2023-02-28T14:28:08.820Z,3.74
2023-02-28T14:31:03.852Z,3.73
2023-02-28T14:33:59.310Z,3.72
2023-02-28T14:36:36.962Z,3.73
2023-02-28T14:39:16.770Z,3.76
2023-02-28T14:41:49.786Z,3.78
2023-02-28T14:44:24.008Z,3.81
2023-02-28T14:46:58.749Z,3.83
2023-02-28T14:49:32.876Z,3.83
2023-02-28T14:52:16.893Z,3.84
2023-02-28T14:54:53.438Z,3.85
2023-02-28T14:57:27.528Z,3.88
2023-02-28T15:00:11.068Z,3.89
2023-02-28T15:02:44.096Z,3.88
2023-02-28T15:05:34.191Z,3.85
2023-02-28T15:08:13.059Z,3.84
2023-02-28T15:10:47.868Z,3.83
2023-02-28T15:13:24.101Z,3.83
2023-02-28T15:16:03.024Z,3.83
2023-02-28T15:18:44.921Z,3.84
2023-02-28T15:21:19.112Z,3.86
2023-02-28T15:23:55.341Z,3.87
2023-02-28T15:26:34.537Z,3.87
2023-02-28T15:29:10.924Z,3.87
2023-02-28T15:31:56.941Z,3.85
2023-02-28T15:34:44.101Z,3.83
2023-02-28T15:37:35.368Z,3.82
2023-02-28T15:40:16.641Z,3.80
2023-02-28T15:43:05.872Z,3.76
2023-02-28T15:45:42.471Z,3.74
2023-02-28T15:48:22.432Z,3.73
2023-02-28T15:50:57.810Z,3.71
2023-02-28T15:53:35.333Z,3.71
2023-02-28T15:56:28.361Z,3.69
2023-02-28T15:59:04.224Z,3.66
2023-02-28T16:01:39.141Z,3.64
2023-02-28T16:04:19.580Z,3.61
2023-02-28T16:07:05.062Z,3.56
2023-02-28T16:09:43.133Z,3.49
2023-02-28T16:12:15.188Z,3.46
2023-02-28T16:14:49.143Z,3.44
2023-02-28T16:17:25.755Z,3.39
2023-02-28T16:19:59.505Z,3.36
2023-02-28T16:22:31.748Z,3.34
2023-02-28T16:25:04.845Z,3.30
2023-02-28T16:27:41.043Z,3.26
2023-02-28T16:30:23.983Z,3.21
2023-02-28T16:32:58.832Z,3.15
2023-02-28T16:35:31.916Z,3.11
2023-02-28T16:38:04.441Z,3.07
2023-02-28T16:40:39.590Z,3.03
2023-02-28T16:43:27.035Z,2.97
2023-02-28T16:46:01.556Z,2.89
2023-02-28T16:48:33.836Z,2.85
2023-02-28T16:51:07.836Z,2.80
2023-02-28T16:53:41.706Z,2.76
2023-02-28T16:56:19.706Z,2.73
2023-02-28T16:58:54.109Z,2.70
2023-02-28T17:01:27.640Z,2.67
2023-02-28T17:04:01.168Z,2.63
2023-02-28T17:06:34.256Z,2.58
2023-02-28T17:09:06.895Z,2.54
2023-02-28T17:11:40.958Z,2.49
2023-02-28T17:14:15.335Z,2.44
2023-02-28T17:16:48.222Z,2.39
2023-02-28T17:19:23.612Z,2.35
2023-02-28T17:21:55.039Z,2.29
2023-02-28T17:24:31.286Z,2.24
2023-02-28T17:27:04.526Z,2.19
2023-02-28T17:29:36.558Z,2.14
2023-02-28T17:32:17.927Z,2.08
2023-02-28T17:34:51.290Z,2.03
2023-02-28T17:37:22.669Z,1.96
2023-02-28T17:39:55.542Z,1.90
2023-02-28T17:42:27.442Z,1.85
2023-02-28T17:44:59.287Z,1.81
2023-02-28T17:47:31.987Z,1.75
2023-02-28T17:50:04.888Z,1.69
2023-02-28T17:52:37.233Z,1.62
2023-02-28T17:55:10.776Z,1.54
2023-02-28T17:57:44.578Z,1.49
2023-02-28T18:00:25.984Z,1.42
2023-02-28T18:02:57.101Z,1.35
2023-02-28T18:05:30.168Z,1.31
2023-02-28T18:08:02.425Z,1.26
2023-02-28T18:10:35.009Z,1.21
2023-02-28T18:13:07.801Z,1.16
2023-02-28T18:15:40.638Z,1.12
2023-02-28T18:18:16.627Z,1.08
2023-02-28T18:20:50.691Z,1.03
2023-02-28T18:23:22.556Z,0.98
2023-02-28T18:25:56.655Z,0.92
2023-02-28T18:28:29.291Z,0.89
2023-02-28T18:31:06.773Z,0.85
2023-02-28T18:33:39.268Z,0.81
2023-02-28T18:36:11.946Z,0.76
2023-02-28T18:38:44.201Z,0.73
2023-02-28T18:41:15.755Z,0.70
2023-02-28T18:43:48.468Z,0.68
2023-02-28T18:46:23.361Z,0.65
2023-02-28T18:48:55.344Z,0.63
2023-02-28T18:51:28.862Z,0.61
2023-02-28T18:54:01.521Z,0.60
2023-02-28T18:56:33.258Z,0.56
2023-02-28T18:59:07.110Z,0.49
2023-02-28T19:01:38.284Z,0.43
2023-02-28T19:04:13.618Z,0.41
2023-02-28T19:06:46.770Z,0.40
2023-02-28T19:09:22.976Z,0.37
2023-02-28T19:11:53.398Z,0.33
2023-02-28T19:14:24.431Z,0.32
2023-02-28T19:16:57.502Z,0.31
2023-02-28T19:19:28.625Z,0.27
2023-02-28T19:22:00.668Z,0.27
2023-02-28T19:24:34.692Z,0.25
2023-02-28T19:27:06.778Z,0.20
2023-02-28T19:29:39.377Z,0.17
2023-02-28T19:32:12.019Z,0.15
2023-02-28T19:34:46.049Z,0.14
2023-02-28T19:37:17.427Z,0.11
2023-02-28T19:39:49.878Z,0.07
2023-02-28T19:42:21.269Z,0.05
2023-02-28T19:44:53.420Z,0.03
2023-02-28T19:47:28.554Z,0.01
2023-02-28T19:50:00.940Z,-0.01
2023-02-28T19:52:31.464Z,-0.04
2023-02-28T19:55:05.508Z,-0.05
2023-02-28T19:57:37.275Z,-0.06
2023-02-28T20:00:15.411Z,-0.09
2023-02-28T20:02:48.469Z,-0.11
2023-02-28T20:05:23.225Z,-0.14
2023-02-28T20:07:55.241Z,-0.15
2023-02-28T20:10:26.896Z,-0.18
2023-02-28T20:13:02.161Z,-0.20
2023-02-28T20:15:34.914Z,-0.23
2023-02-28T20:18:08.024Z,-0.26
2023-02-28T20:20:41.693Z,-0.29
2023-02-28T20:23:13.434Z,-0.32
2023-02-28T20:25:46.093Z,-0.35
2023-02-28T20:28:19.022Z,-0.36
2023-02-28T20:30:51.107Z,-0.37
2023-02-28T20:33:22.017Z,-0.40
2023-02-28T20:36:01.074Z,-0.42
2023-02-28T20:38:33.396Z,-0.44
2023-02-28T20:41:07.224Z,-0.46
2023-02-28T20:43:40.438Z,-0.48
2023-02-28T20:46:12.167Z,-0.49
2023-02-28T20:48:46.669Z,-0.54
2023-02-28T20:51:18.250Z,-0.57
2023-02-28T20:53:51.527Z,-0.60
2023-02-28T20:56:24.968Z,-0.61
2023-02-28T20:58:57.896Z,-0.63
2023-02-28T21:01:30.184Z,-0.66
2023-02-28T21:04:03.142Z,-0.68
2023-02-28T21:06:36.774Z,-0.70
2023-02-28T21:09:09.540Z,-0.72
2023-02-28T21:11:43.977Z,-0.73
2023-02-28T21:14:18.180Z,-0.73
2023-02-28T21:16:49.839Z,-0.74
2023-02-28T21:19:22.746Z,-0.76
2023-02-28T21:21:56.618Z,-0.79
2023-02-28T21:24:29.689Z,-0.82
2023-02-28T21:27:02.668Z,-0.83
2023-02-28T21:29:34.415Z,-0.83
2023-02-28T21:32:07.811Z,-0.84
2023-02-28T21:34:39.893Z,-0.84
2023-02-28T21:37:11.694Z,-0.88
2023-02-28T21:39:42.809Z,-0.90
2023-02-28T21:42:14.952Z,-0.90
2023-02-28T21:44:48.856Z,-0.89
2023-02-28T21:47:26.111Z,-0.90
2023-02-28T21:49:58.974Z,-0.93
2023-02-28T21:52:30.911Z,-0.94
2023-02-28T21:55:05.063Z,-0.95
2023-02-28T21:57:39.619Z,-0.95
2023-02-28T22:00:17.137Z,-0.95
2023-02-28T22:02:50.100Z,-0.96
2023-02-28T22:05:23.594Z,-0.98
2023-02-28T22:08:01.092Z,-1.01
2023-02-28T22:10:42.270Z,-1.02
2023-02-28T22:13:13.490Z,-1.05
2023-02-28T22:15:45.038Z,-1.06
2023-02-28T22:18:17.274Z,-1.06
2023-02-28T22:20:56.358Z,-1.06
2023-02-28T22:23:26.956Z,-1.07
2023-02-28T22:26:02.726Z,-1.09
2023-02-28T22:28:36.150Z,-1.12
2023-02-28T22:31:18.190Z,-1.14
2023-02-28T22:33:52.393Z,-1.18
2023-02-28T22:36:23.921Z,-1.20
2023-02-28T22:38:55.487Z,-1.22
2023-02-28T22:41:27.688Z,-1.23
2023-02-28T22:44:00.981Z,-1.23
2023-02-28T22:46:35.915Z,-1.24
2023-02-28T22:49:08.326Z,-1.25
2023-02-28T22:51:40.627Z,-1.26
2023-02-28T22:54:11.560Z,-1.26
2023-02-28T22:56:43.719Z,-1.26
2023-02-28T22:59:17.219Z,-1.26
2023-02-28T23:01:49.674Z,-1.28
2023-02-28T23:04:25.501Z,-1.29
2023-02-28T23:06:58.592Z,-1.30
2023-02-28T23:09:30.185Z,-1.32
2023-02-28T23:12:02.780Z,-1.33
2023-02-28T23:14:36.230Z,-1.36
2023-02-28T23:17:09.767Z,-1.38
2023-02-28T23:19:42.562Z,-1.38
2023-02-28T23:22:16.301Z,-1.38
2023-02-28T23:24:47.331Z,-1.38
2023-02-28T23:27:19.263Z,-1.40
2023-02-28T23:29:50.838Z,-1.41
2023-02-28T23:32:21.547Z,-1.42
2023-02-28T23:34:56.189Z,-1.45
2023-02-28T23:37:32.539Z,-1.46
2023-02-28T23:40:08.172Z,-1.46
2023-02-28T23:42:41.209Z,-1.48
2023-02-28T23:45:14.696Z,-1.48
2023-02-28T23:47:47.462Z,-1.48
2023-02-28T23:50:21.036Z,-1.48
2023-02-28T23:52:56.380Z,-1.47
2023-02-28T23:55:30.588Z,-1.47
2023-02-28T23:58:03.869Z,-1.48
